ミラノ/マルペンサ の空港の天気 - METARとTAF

ミラノ・マルペンサ国際空港 ( LIMC / MXP ) - イタリア ミラノ
飛行場実況気象(Metar)
観測時間06/29 03:50 CEST (06/29 01:50 UTC)
風向・風速東北東 2m/s
視程10km以上
天気現象弱い雨
全天の4割程度の雲 雲底高度 1220m
全天の8割程度の雲 雲底高度 2440m
気温16℃
湿度94%
気圧1001hPa
METARLIMC 290150Z 07004KT 9999 -RA SCT040 BKN080 16/15 Q1001 NOSIG
過去の天気等 Google飛行場航空写真 Wunderground天気予報

過去48時間のMETAR

飛行場予報(TAF)
発表時間: 6/29 01:00 CEST (6/28 23:00 UTC)
予報対象時間: 29日2時 CEST ~ 30日8時 CEST
風向・風速不定 3m/s
視程10km以上
全天の8割程度の雲 雲底高度 1,520m
29日2時 CEST ~ 29日5時 CEST に 確率 40% で一時的に
視程4,000m
天気現象雷雨
29日5時 CEST ~ 29日8時 CEST に一時的に
視程4,000m
天気現象もや
29日14時 CEST ~ 30日8時 CEST に一時的に
視程4,000m
天気現象雷雨
TAF LIMC 282300Z 2900/3006 VRB05KT 9999 BKN050
PROB40 TEMPO 2900/2903 4000 TSRA
TEMPO 2903/2906 4000 BR
TEMPO 2912/3006 4000 TSRA